Time;durP1;ratioP1;P1;durP2;ratioP2;P2;SDS_P1;SDS_P2;PMS_P1;PMS_P2;Temp;Humidity;BMP_temperature;BMP_pressure;BME280_temperature;BME280_humidity;BME280_pressure;Samples;Min_cycle;Max_cycle;Signal;HPM_P1;HPM_P2
2024/03/10 00:00:20;;;;;;;11.27;9.50;;;;;;;6.39;69.84;93587.00;518517;28;872;-71
2024/03/10 00:00:39;;;;;;;12.85;9.80;;;;;;;6.39;70.10;93587.00;519665;28;977;-72
2024/03/10 00:00:54;;;;;;;11.73;9.48;;;;;;;6.29;70.22;93580.41;519930;28;931;-72
2024/03/10 00:01:10;;;;;;;11.90;9.82;;;;;;;6.33;69.98;93596.56;520717;28;1178;-71
2024/03/10 00:01:26;;;;;;;12.60;10.40;;;;;;;6.32;70.31;93584.13;519808;28;786;-72
2024/03/10 00:01:42;;;;;;;13.93;10.30;;;;;;;6.23;70.56;93587.97;518769;28;822;-73
2024/03/10 00:01:58;;;;;;;13.67;10.47;;;;;;;6.21;70.94;93590.50;520055;28;755;-73
2024/03/10 00:02:14;;;;;;;12.13;10.18;;;;;;;6.17;71.07;93587.31;520991;28;903;-72
2024/03/10 00:02:29;;;;;;;11.15;9.35;;;;;;;6.17;71.23;93594.78;519775;28;930;-72
2024/03/10 00:02:45;;;;;;;10.57;9.47;;;;;;;6.18;71.34;93593.53;519844;28;930;-72
2024/03/10 00:03:04;;;;;;;11.13;9.85;;;;;;;6.19;71.10;93587.53;520033;28;1624;-71
2024/03/10 00:03:19;;;;;;;12.23;9.70;;;;;;;6.18;70.98;93591.53;519891;28;937;-71
2024/03/10 00:03:36;;;;;;;12.53;9.90;;;;;;;6.21;71.22;93592.50;519696;28;763;-71
2024/03/10 00:03:52;;;;;;;12.20;9.93;;;;;;;6.09;71.23;93584.41;519202;28;905;-71
2024/03/10 00:04:07;;;;;;;12.40;9.30;;;;;;;6.10;71.06;93588.63;519435;28;855;-72
2024/03/10 00:04:23;;;;;;;13.65;9.60;;;;;;;6.12;71.19;93588.13;520149;28;990;-71
2024/03/10 00:04:41;;;;;;;12.23;9.67;;;;;;;6.13;71.35;93588.84;520789;28;901;-71
2024/03/10 00:04:56;;;;;;;11.60;9.57;;;;;;;6.13;71.31;93587.59;520776;28;884;-72
2024/03/10 00:05:15;;;;;;;12.40;9.50;;;;;;;6.16;71.41;93593.28;519530;28;803;-71
2024/03/10 00:05:30;;;;;;;12.13;9.85;;;;;;;6.16;71.36;93593.28;518439;28;1259;-71
2024/03/10 00:05:46;;;;;;;11.70;9.80;;;;;;;6.15;71.11;93591.81;518971;28;1929;-71
2024/03/10 00:06:01;;;;;;;12.00;9.55;;;;;;;6.15;71.06;93587.06;520407;28;837;-72
2024/03/10 00:06:17;;;;;;;12.97;9.83;;;;;;;6.17;71.19;93586.56;519397;28;802;-72
2024/03/10 00:06:34;;;;;;;12.90;10.13;;;;;;;6.17;71.20;93590.06;518738;28;924;-72
2024/03/10 00:06:49;;;;;;;11.13;9.65;;;;;;;6.13;71.44;93584.84;519196;28;818;-72
2024/03/10 00:07:04;;;;;;;12.63;9.90;;;;;;;6.14;71.37;93585.59;520755;28;786;-72
2024/03/10 00:07:20;;;;;;;13.48;10.15;;;;;;;6.16;71.45;93582.31;520840;28;856;-72
2024/03/10 00:07:35;;;;;;;14.00;10.30;;;;;;;6.17;71.28;93587.31;520779;28;786;-72
2024/03/10 00:07:51;;;;;;;14.50;10.67;;;;;;;6.13;71.56;93584.84;519548;28;1001;-72
2024/03/10 00:08:06;;;;;;;14.00;10.90;;;;;;;6.16;71.46;93585.81;520794;28;846;-72
2024/03/10 00:08:22;;;;;;;15.00;10.93;;;;;;;6.17;71.51;93583.81;520789;28;860;-72
2024/03/10 00:08:40;;;;;;;14.73;11.17;;;;;;;6.19;71.30;93582.06;520553;28;1848;-72
2024/03/10 00:08:55;;;;;;;13.38;11.35;;;;;;;6.21;71.59;93585.03;519200;28;973;-72
2024/03/10 00:09:11;;;;;;;12.75;11.10;;;;;;;6.05;71.69;93561.28;518720;28;893;-72
2024/03/10 00:09:27;;;;;;;13.33;10.80;;;;;;;6.25;71.38;93577.25;518785;28;790;-72
2024/03/10 00:09:44;;;;;;;13.20;10.40;;;;;;;6.22;71.24;93583.00;519152;28;877;-72
2024/03/10 00:10:00;;;;;;;11.65;10.10;;;;;;;6.21;71.24;93584.28;520812;28;853;-72
2024/03/10 00:10:15;;;;;;;12.35;10.30;;;;;;;6.17;71.64;93581.09;520806;28;802;-72
2024/03/10 00:10:36;;;;;;;13.83;10.73;;;;;;;6.17;71.56;93584.56;520526;28;942;-72
2024/03/10 00:10:52;;;;;;;13.13;10.40;;;;;;;6.16;71.84;93582.31;520186;28;924;-72
2024/03/10 00:11:07;;;;;;;12.37;10.23;;;;;;;6.18;71.99;93585.28;520717;28;866;-73
2024/03/10 00:11:23;;;;;;;12.32;10.18;;;;;;;6.18;71.72;93577.81;520215;28;1708;-72
2024/03/10 00:11:42;;;;;;;12.10;9.70;;;;;;;6.19;71.40;93584.78;519623;28;841;-72
2024/03/10 00:11:57;;;;;;;12.48;10.43;;;;;;;6.19;71.57;93576.56;519739;28;826;-72
2024/03/10 00:12:13;;;;;;;13.17;10.83;;;;;;;6.18;71.60;93585.28;519527;28;1145;-72
2024/03/10 00:12:29;;;;;;;12.82;10.52;;;;;;;6.21;71.65;93584.28;519803;28;814;-72
2024/03/10 00:12:48;;;;;;;13.38;10.20;;;;;;;6.23;71.50;93582.50;519693;28;821;-72
2024/03/10 00:13:04;;;;;;;14.30;10.60;;;;;;;6.13;71.67;93572.41;520624;28;833;-71
2024/03/10 00:13:20;;;;;;;13.18;10.68;;;;;;;6.27;71.67;93587.69;519228;28;1106;-72
2024/03/10 00:13:36;;;;;;;14.10;11.13;;;;;;;6.28;71.64;93594.66;518723;28;929;-72
2024/03/10 00:13:52;;;;;;;15.02;11.55;;;;;;;6.30;71.52;93592.13;520635;28;1084;-71
2024/03/10 00:14:08;;;;;;;15.48;12.00;;;;;;;6.32;71.51;93584.13;520689;28;920;-71
2024/03/10 00:14:23;;;;;;;15.98;12.20;;;;;;;6.33;71.58;93580.13;519361;28;876;-72
2024/03/10 00:14:38;;;;;;;15.47;11.90;;;;;;;6.36;71.54;93587.31;518723;28;826;-72
2024/03/10 00:14:54;;;;;;;14.98;11.57;;;;;;;6.36;71.82;93584.56;519588;28;786;-72
2024/03/10 00:15:10;;;;;;;15.13;11.33;;;;;;;6.37;71.62;93584.06;520761;28;841;-72
2024/03/10 00:15:25;;;;;;;14.55;11.38;;;;;;;6.37;71.48;93586.78;520633;28;1056;-72
2024/03/10 00:15:41;;;;;;;13.93;11.27;;;;;;;6.38;71.74;93588.28;520171;28;1672;-72
2024/03/10 00:15:56;;;;;;;14.50;11.55;;;;;;;6.38;71.64;93582.81;519376;28;1914;-72
2024/03/10 00:16:12;;;;;;;14.37;11.47;;;;;;;6.41;71.47;93589.25;518714;28;822;-72
2024/03/10 00:16:27;;;;;;;15.65;11.70;;;;;;;6.42;71.48;93583.25;518817;28;782;-72
2024/03/10 00:16:43;;;;;;;15.33;12.00;;;;;;;6.43;71.66;93584.00;519205;28;774;-72
2024/03/10 00:16:59;;;;;;;14.80;11.73;;;;;;;6.45;71.67;93582.22;519431;28;812;-72
2024/03/10 00:17:15;;;;;;;16.15;12.38;;;;;;;6.46;71.64;93583.69;518733;28;786;-72
2024/03/10 00:17:31;;;;;;;16.02;12.32;;;;;;;6.49;71.85;93584.66;518720;28;822;-72
2024/03/10 00:17:47;;;;;;;14.63;11.82;;;;;;;6.51;71.72;93588.38;518692;28;786;-72
2024/03/10 00:18:02;;;;;;;13.90;11.90;;;;;;;6.54;71.92;93586.59;520638;28;814;-72
2024/03/10 00:18:18;;;;;;;14.43;11.80;;;;;;;6.55;71.79;93585.31;520777;28;786;-72
2024/03/10 00:18:33;;;;;;;15.38;12.05;;;;;;;6.56;71.60;93584.06;520597;28;1028;-72
2024/03/10 00:18:49;;;;;;;17.00;12.83;;;;;;;6.58;71.67;93582.28;520748;28;1212;-72
2024/03/10 00:19:04;;;;;;;17.38;13.38;;;;;;;6.61;71.60;93588.72;520823;28;868;-72
2024/03/10 00:19:20;;;;;;;16.10;12.90;;;;;;;6.62;71.32;93585.47;520795;28;833;-72
2024/03/10 00:19:35;;;;;;;15.18;12.63;;;;;;;6.65;71.47;93583.69;520801;28;771;-72
2024/03/10 00:19:52;;;;;;;15.93;13.17;;;;;;;6.69;71.21;93584.13;519578;28;1822;-72
2024/03/10 00:20:10;;;;;;;16.65;13.25;;;;;;;6.71;71.08;93587.81;519020;28;909;-72
2024/03/10 00:20:26;;;;;;;16.63;13.00;;;;;;;6.72;70.90;93588.56;518778;28;948;-72
2024/03/10 00:20:44;;;;;;;16.23;12.88;;;;;;;6.74;70.79;93588.78;518821;28;866;-72
2024/03/10 00:21:01;;;;;;;15.50;12.20;;;;;;;6.73;70.99;93590.06;520678;28;837;-72
2024/03/10 00:21:16;;;;;;;14.63;11.52;;;;;;;6.68;70.76;93585.38;520803;28;829;-72
2024/03/10 00:21:33;;;;;;;14.10;10.73;;;;;;;6.57;70.37;93583.53;520797;28;829;-72
2024/03/10 00:21:49;;;;;;;13.15;10.85;;;;;;;6.53;70.51;93582.34;519957;28;909;-72
2024/03/10 00:22:04;;;;;;;14.45;11.10;;;;;;;6.53;70.56;93585.84;520786;28;842;-72
2024/03/10 00:22:20;;;;;;;16.40;11.10;;;;;;;6.53;70.79;93587.84;520186;28;1786;-72
2024/03/10 00:22:41;;;;;;;15.73;11.35;;;;;;;6.53;70.89;93583.09;519695;28;814;-72
2024/03/10 00:22:57;;;;;;;13.98;11.20;;;;;;;6.57;70.79;93580.06;519047;28;888;-72
2024/03/10 00:23:13;;;;;;;13.35;11.05;;;;;;;6.58;70.84;93584.28;518731;28;841;-72
2024/03/10 00:23:30;;;;;;;15.15;11.35;;;;;;;6.60;70.88;93581.78;518603;28;1021;-72
2024/03/10 00:23:45;;;;;;;14.52;11.32;;;;;;;6.62;70.71;93584.72;518780;28;829;-72
2024/03/10 00:24:01;;;;;;;12.53;10.27;;;;;;;6.63;70.73;93581.47;520551;28;846;-73
2024/03/10 00:24:17;;;;;;;13.02;10.02;;;;;;;6.66;70.31;93576.94;520758;28;833;-72
2024/03/10 00:24:33;;;;;;;12.45;10.05;;;;;;;6.68;70.24;93571.66;519111;28;1411;-71
2024/03/10 00:24:49;;;;;;;12.20;10.23;;;;;;;6.69;70.19;93578.66;520359;28;818;-71
2024/03/10 00:25:06;;;;;;;12.90;10.50;;;;;;;6.50;70.02;93545.72;519668;28;1108;-71
2024/03/10 00:25:21;;;;;;;14.38;11.05;;;;;;;6.73;70.28;93576.34;520808;28;841;-74
2024/03/10 00:25:37;;;;;;;14.37;11.30;;;;;;;6.74;69.86;93578.56;520697;28;1581;-71
2024/03/10 00:25:53;;;;;;;14.23;11.43;;;;;;;6.75;69.85;93580.06;519910;28;802;-71
2024/03/10 00:26:09;;;;;;;15.07;11.45;;;;;;;6.76;69.82;93580.78;519204;28;977;-75
2024/03/10 00:26:24;;;;;;;15.73;12.10;;;;;;;6.76;69.85;93583.53;518771;28;861;-74
2024/03/10 00:26:40;;;;;;;14.40;12.17;;;;;;;6.77;69.94;93585.00;518681;28;893;-75
2024/03/10 00:26:55;;;;;;;13.68;11.40;;;;;;;6.77;70.05;93588.50;519791;28;800;-74
2024/03/10 00:27:11;;;;;;;15.83;11.87;;;;;;;6.79;69.93;93579.75;520729;28;794;-74
2024/03/10 00:27:27;;;;;;;16.73;12.30;;;;;;;6.79;70.13;93587.97;520890;28;806;-74
2024/03/10 00:27:42;;;;;;;14.85;11.38;;;;;;;6.78;70.04;93584.50;520434;28;1012;-74
2024/03/10 00:27:58;;;;;;;13.57;10.90;;;;;;;6.78;69.86;93589.22;519982;28;925;-75
2024/03/10 00:28:13;;;;;;;14.43;10.90;;;;;;;6.74;69.69;93586.03;520850;28;774;-75
2024/03/10 00:28:29;;;;;;;15.18;11.15;;;;;;;6.72;69.60;93583.09;519646;28;1671;-74
2024/03/10 00:28:45;;;;;;;14.98;11.65;;;;;;;6.68;69.67;93583.41;520412;28;825;-75
2024/03/10 00:29:01;;;;;;;14.20;11.57;;;;;;;6.69;69.75;93584.88;519178;28;841;-75
2024/03/10 00:29:17;;;;;;;14.13;11.40;;;;;;;6.71;69.57;93587.81;518677;28;961;-75
2024/03/10 00:29:32;;;;;;;13.97;11.43;;;;;;;6.72;69.91;93577.59;519002;28;1239;-74
2024/03/10 00:29:47;;;;;;;15.57;11.60;;;;;;;6.73;69.88;93581.84;518698;28;798;-74
2024/03/10 00:30:09;;;;;;;15.93;11.80;;;;;;;6.74;69.87;93575.06;520743;28;765;-74
2024/03/10 00:30:25;;;;;;;14.57;11.45;;;;;;;6.78;69.96;93578.25;520778;28;849;-74
2024/03/10 00:30:40;;;;;;;15.00;11.73;;;;;;;6.79;69.76;93575.00;518721;28;853;-74
2024/03/10 00:30:56;;;;;;;14.30;11.50;;;;;;;6.79;70.10;93572.25;519798;28;962;-74
2024/03/10 00:31:11;;;;;;;15.83;11.83;;;;;;;6.77;70.28;93572.03;518728;28;866;-74
2024/03/10 00:31:26;;;;;;;15.98;12.25;;;;;;;6.77;69.96;93566.56;518797;28;914;-74
2024/03/10 00:31:42;;;;;;;14.93;11.47;;;;;;;6.77;70.08;93574.03;518707;28;854;-74
2024/03/10 00:31:57;;;;;;;17.63;11.40;;;;;;;6.77;70.12;93571.28;519999;28;758;-74
2024/03/10 00:32:13;;;;;;;17.00;11.50;;;;;;;6.74;69.94;93572.31;520733;28;813;-74
2024/03/10 00:32:28;;;;;;;14.48;11.10;;;;;;;6.72;70.10;93570.13;519686;28;1683;-74
2024/03/10 00:32:44;;;;;;;14.47;11.30;;;;;;;6.73;70.08;93571.59;518476;28;993;-74
2024/03/10 00:32:59;;;;;;;15.70;11.53;;;;;;;6.74;70.20;93575.81;519009;28;805;-74
2024/03/10 00:33:15;;;;;;;15.43;11.50;;;;;;;6.77;70.09;93569.31;518665;28;817;-74
2024/03/10 00:33:31;;;;;;;14.65;11.35;;;;;;;6.76;70.01;93572.53;520043;28;964;-74
2024/03/10 00:33:46;;;;;;;14.43;11.20;;;;;;;6.76;69.96;93567.06;520778;28;825;-74
2024/03/10 00:34:04;;;;;;;14.00;11.43;;;;;;;6.78;69.97;93568.03;520742;28;893;-74
2024/03/10 00:34:19;;;;;;;13.68;11.52;;;;;;;6.81;69.92;93569.72;520680;28;993;-74
2024/03/10 00:34:35;;;;;;;13.77;11.50;;;;;;;6.85;70.01;93564.69;519388;28;1121;-74
2024/03/10 00:34:51;;;;;;;15.77;12.07;;;;;;;6.87;69.93;93569.63;519013;28;857;-74
2024/03/10 00:35:08;;;;;;;15.60;12.48;;;;;;;6.91;69.82;93566.63;520742;28;838;-74
2024/03/10 00:35:24;;;;;;;16.67;12.80;;;;;;;6.91;69.78;93566.63;520810;28;881;-74
2024/03/10 00:35:39;;;;;;;17.43;12.97;;;;;;;6.92;69.75;93568.81;520674;28;833;-74
2024/03/10 00:35:54;;;;;;;16.67;12.73;;;;;;;6.93;69.73;93562.06;519853;28;1965;-73
2024/03/10 00:36:10;;;;;;;17.07;12.93;;;;;;;6.95;69.59;93567.78;518711;28;763;-75
2024/03/10 00:36:25;;;;;;;17.80;12.82;;;;;;;6.94;69.76;93563.56;518794;28;794;-74
2024/03/10 00:36:41;;;;;;;17.13;12.43;;;;;;;6.96;69.66;93563.78;518745;28;819;-74
2024/03/10 00:36:56;;;;;;;16.10;12.70;;;;;;;6.96;69.69;93569.25;519912;28;770;-74
2024/03/10 00:37:12;;;;;;;16.27;12.87;;;;;;;6.99;69.54;93562.72;519046;28;1676;-74
2024/03/10 00:37:28;;;;;;;15.87;12.23;;;;;;;7.01;69.54;93560.22;520549;28;1020;-74
2024/03/10 00:37:43;;;;;;;13.88;11.23;;;;;;;7.03;69.59;93565.16;518677;28;865;-74
2024/03/10 00:37:59;;;;;;;14.15;11.18;;;;;;;7.04;69.42;93564.63;520157;28;821;-74
2024/03/10 00:38:15;;;;;;;14.02;11.43;;;;;;;7.07;69.19;93558.09;518797;28;884;-74
2024/03/10 00:38:31;;;;;;;13.60;11.33;;;;;;;7.06;68.85;93567.59;518714;28;849;-74
2024/03/10 00:38:46;;;;;;;15.07;11.27;;;;;;;6.99;68.59;93564.72;518630;28;774;-74
2024/03/10 00:39:03;;;;;;;13.77;10.38;;;;;;;6.95;68.33;93562.31;520621;28;813;-74
2024/03/10 00:39:19;;;;;;;12.63;10.38;;;;;;;6.93;68.44;93561.34;518822;28;901;-74
2024/03/10 00:39:35;;;;;;;13.75;10.57;;;;;;;6.96;68.38;93555.53;518734;28;858;-74
2024/03/10 00:39:50;;;;;;;13.33;10.40;;;;;;;6.99;68.47;93562.00;518355;28;1501;-74
2024/03/10 00:40:07;;;;;;;13.10;10.60;;;;;;;6.94;68.40;93544.34;518823;28;873;-74
2024/03/10 00:40:23;;;;;;;13.05;10.90;;;;;;;7.00;68.35;93571.69;520285;28;916;-74
2024/03/10 00:40:39;;;;;;;13.27;11.25;;;;;;;7.00;68.46;93550.47;520308;28;1695;-74
2024/03/10 00:40:55;;;;;;;14.80;11.40;;;;;;;7.02;68.32;93561.69;519434;28;1075;-73
2024/03/10 00:41:10;;;;;;;15.13;11.70;;;;;;;7.04;68.33;93553.66;518962;28;825;-74
2024/03/10 00:41:26;;;;;;;15.38;12.10;;;;;;;7.05;68.41;93560.63;520743;28;1139;-74
2024/03/10 00:41:41;;;;;;;14.67;12.20;;;;;;;7.05;68.50;93555.16;520467;28;887;-74
2024/03/10 00:41:56;;;;;;;14.98;12.10;;;;;;;7.04;68.74;93556.41;518991;28;872;-74
2024/03/10 00:42:12;;;;;;;15.03;11.87;;;;;;;7.05;68.63;93557.91;518742;28;903;-72
2024/03/10 00:42:29;;;;;;;15.73;11.95;;;;;;;7.05;68.82;93557.91;518710;28;908;-72
2024/03/10 00:42:44;;;;;;;15.88;12.45;;;;;;;7.05;68.48;93557.16;518622;28;837;-72
2024/03/10 00:43:00;;;;;;;15.13;12.43;;;;;;;7.07;68.66;93558.09;520083;28;993;-72
2024/03/10 00:43:16;;;;;;;15.52;12.57;;;;;;;7.09;68.78;93560.31;520130;28;1632;-72
2024/03/10 00:43:33;;;;;;;14.83;12.43;;;;;;;7.09;68.77;93552.84;519928;28;1160;-72
2024/03/10 00:43:49;;;;;;;14.93;12.05;;;;;;;7.11;68.81;93555.78;518859;28;813;-72
2024/03/10 00:44:04;;;;;;;15.77;12.30;;;;;;;7.11;68.82;93561.28;520593;28;934;-72
2024/03/10 00:44:20;;;;;;;16.50;12.88;;;;;;;7.14;68.75;93557.50;520675;28;888;-71
2024/03/10 00:44:35;;;;;;;15.73;12.60;;;;;;;7.15;68.74;93558.97;520721;28;1088;-72
2024/03/10 00:44:50;;;;;;;14.57;11.98;;;;;;;7.15;68.72;93556.22;520556;28;1073;-72
2024/03/10 00:45:07;;;;;;;16.13;11.83;;;;;;;7.19;68.84;93566.91;520742;28;872;-72
2024/03/10 00:45:25;;;;;;;16.98;12.25;;;;;;;7.18;68.68;93557.94;520948;28;861;-72
2024/03/10 00:45:40;;;;;;;15.75;12.60;;;;;;;7.20;68.45;93562.88;518641;28;916;-72
2024/03/10 00:45:56;;;;;;;17.00;12.90;;;;;;;7.22;68.69;93557.63;519864;28;802;-72
2024/03/10 00:46:11;;;;;;;15.90;12.57;;;;;;;7.23;68.55;93559.09;520732;28;750;-72
2024/03/10 00:46:28;;;;;;;14.48;12.40;;;;;;;7.22;68.53;93549.38;520712;28;1060;-72
2024/03/10 00:46:43;;;;;;;15.25;12.57;;;;;;;7.26;68.75;93561.53;520700;28;931;-72
2024/03/10 00:46:59;;;;;;;14.73;12.82;;;;;;;7.04;68.41;93523.47;520355;28;1644;-71
2024/03/10 00:47:15;;;;;;;14.10;12.60;;;;;;;7.26;68.56;93561.53;519208;28;818;-72
2024/03/10 00:47:30;;;;;;;14.00;11.93;;;;;;;7.25;68.58;93559.31;520662;28;1174;-72
2024/03/10 00:47:48;;;;;;;15.30;12.07;;;;;;;7.24;68.53;93564.06;520700;28;837;-72
2024/03/10 00:48:04;;;;;;;15.55;12.40;;;;;;;7.26;68.36;93558.78;518489;28;1025;-72
2024/03/10 00:48:20;;;;;;;14.68;12.02;;;;;;;7.26;68.52;93561.53;518571;28;876;-72
2024/03/10 00:48:36;;;;;;;14.80;12.13;;;;;;;7.26;68.43;93560.78;518645;28;896;-72
2024/03/10 00:48:52;;;;;;;14.77;12.60;;;;;;;7.25;68.33;93554.56;518999;28;908;-72
2024/03/10 00:49:08;;;;;;;14.70;12.15;;;;;;;7.22;68.21;93552.88;520243;28;813;-72
2024/03/10 00:49:23;;;;;;;14.87;11.60;;;;;;;7.22;68.24;93550.13;518597;28;774;-72
2024/03/10 00:49:39;;;;;;;16.08;11.93;;;;;;;7.23;68.29;93554.38;520054;28;1167;-72
2024/03/10 00:49:54;;;;;;;16.40;12.37;;;;;;;7.23;68.29;93554.38;520616;28;797;-72
2024/03/10 00:50:10;;;;;;;16.10;12.63;;;;;;;7.25;68.16;93557.31;520674;28;829;-72
2024/03/10 00:50:25;;;;;;;16.47;12.60;;;;;;;7.23;68.25;93559.84;519724;28;1738;-72
2024/03/10 00:50:40;;;;;;;18.50;12.40;;;;;;;7.17;68.31;93556.44;520174;28;762;-72
2024/03/10 00:50:56;;;;;;;18.23;12.55;;;;;;;7.17;68.35;93561.94;520454;28;793;-71
2024/03/10 00:51:13;;;;;;;18.97;13.10;;;;;;;7.17;68.49;93553.69;520518;28;917;-71
2024/03/10 00:51:28;;;;;;;22.98;13.57;;;;;;;7.19;68.68;93559.41;519290;28;825;-70
2024/03/10 00:51:45;;;;;;;30.08;14.25;;;;;;;7.20;68.48;93555.41;518721;28;750;-71
2024/03/10 00:52:00;;;;;;;31.63;14.15;;;;;;;7.19;68.76;93553.19;520421;28;908;-71
2024/03/10 00:52:16;;;;;;;26.77;14.18;;;;;;;7.18;68.75;93562.69;520749;28;793;-71
2024/03/10 00:52:32;;;;;;;22.60;13.67;;;;;;;7.19;68.53;93559.41;519434;28;900;-71
2024/03/10 00:52:48;;;;;;;17.77;12.95;;;;;;;7.21;68.66;93556.88;519495;28;1006;-71
2024/03/10 00:53:03;;;;;;;15.47;12.73;;;;;;;7.21;68.44;93558.91;520680;28;789;-71
2024/03/10 00:53:19;;;;;;;15.57;12.25;;;;;;;7.22;68.33;93552.88;520673;28;774;-71
2024/03/10 00:53:34;;;;;;;14.10;10.63;;;;;;;7.15;67.81;93558.22;520580;28;1687;-71
2024/03/10 00:53:50;;;;;;;12.77;9.43;;;;;;;7.12;67.67;93551.06;519925;28;778;-71
2024/03/10 00:54:05;;;;;;;12.33;9.37;;;;;;;7.14;67.69;93552.00;518667;28;758;-71
2024/03/10 00:54:21;;;;;;;12.48;9.93;;;;;;;7.14;67.52;93559.50;520465;28;996;-71
2024/03/10 00:54:36;;;;;;;12.53;9.90;;;;;;;7.14;67.52;93559.50;520812;28;773;-71
2024/03/10 00:54:52;;;;;;;12.85;10.18;;;;;;;7.12;67.59;93556.53;519285;28;819;-71
2024/03/10 00:55:09;;;;;;;15.63;10.80;;;;;;;7.10;67.71;93554.31;519358;28;1370;-70
2024/03/10 00:55:26;;;;;;;15.43;11.07;;;;;;;7.02;67.60;93539.00;520636;28;923;-71
2024/03/10 00:55:44;;;;;;;14.18;11.18;;;;;;;7.14;67.60;93557.50;520691;28;856;-70
2024/03/10 00:56:00;;;;;;;15.85;11.52;;;;;;;7.15;67.66;93555.47;520191;28;1914;-71
2024/03/10 00:56:19;;;;;;;16.73;12.30;;;;;;;7.14;67.67;93552.00;520670;28;869;-71
2024/03/10 00:56:35;;;;;;;15.98;12.13;;;;;;;6.82;67.69;93515.59;520740;28;849;-71
2024/03/10 00:56:51;;;;;;;14.52;11.00;;;;;;;6.99;67.94;93557.25;520546;28;1107;-71
2024/03/10 00:57:06;;;;;;;14.87;10.80;;;;;;;6.91;67.98;93556.34;518903;28;920;-70
2024/03/10 00:57:22;;;;;;;15.00;11.95;;;;;;;6.92;68.06;93562.59;518709;28;1688;-71
2024/03/10 00:57:38;;;;;;;14.47;12.20;;;;;;;6.88;68.20;93554.66;519547;28;841;-71
2024/03/10 00:57:53;;;;;;;15.10;11.85;;;;;;;6.94;68.32;93566.31;520227;28;848;-70
2024/03/10 00:58:10;;;;;;;13.88;11.15;;;;;;;6.95;68.33;93556.81;518534;28;866;-71
2024/03/10 00:58:26;;;;;;;14.13;11.30;;;;;;;6.95;68.40;93573.28;519403;28;1013;-70
2024/03/10 00:58:41;;;;;;;14.05;11.05;;;;;;;6.89;68.37;93559.63;518701;28;754;-71
2024/03/10 00:58:57;;;;;;;14.93;11.17;;;;;;;6.84;68.48;93562.47;519004;28;815;-71
2024/03/10 00:59:12;;;;;;;15.23;10.98;;;;;;;6.84;68.50;93565.22;518682;28;782;-71
2024/03/10 00:59:28;;;;;;;13.30;10.70;;;;;;;6.81;68.91;93564.25;518635;28;817;-71
2024/03/10 00:59:43;;;;;;;12.68;10.63;;;;;;;6.83;68.70;93564.47;518648;28;857;-71
2024/03/10 00:59:58;;;;;;;11.80;9.70;;;;;;;6.80;68.54;93559.25;520060;28;862;-71
2024/03/10 01:00:15;;;;;;;13.38;10.23;;;;;;;6.86;68.56;93565.44;520756;28;908;-71
2024/03/10 01:00:32;;;;;;;14.15;10.82;;;;;;;6.86;68.46;93563.41;519743;28;1557;-72
2024/03/10 01:00:48;;;;;;;13.98;11.15;;;;;;;6.87;68.50;93567.66;518734;28;850;-71
2024/03/10 01:01:04;;;;;;;13.65;11.10;;;;;;;6.89;68.52;93561.63;520651;28;882;-71
2024/03/10 01:01:19;;;;;;;12.90;10.65;;;;;;;6.91;68.49;93570.06;520811;28;789;-70
2024/03/10 01:01:35;;;;;;;12.27;10.23;;;;;;;6.94;68.35;93568.28;518743;28;774;-71
2024/03/10 01:01:50;;;;;;;12.85;10.63;;;;;;;6.94;68.24;93568.28;519053;28;770;-70
2024/03/10 01:02:06;;;;;;;12.73;10.82;;;;;;;6.96;68.12;93566.50;520772;28;798;-71
2024/03/10 01:02:22;;;;;;;12.57;10.40;;;;;;;6.97;68.22;93565.25;520748;28;837;-70
2024/03/10 01:02:38;;;;;;;13.38;10.80;;;;;;;6.74;68.23;93531.91;518958;28;982;-70
2024/03/10 01:02:55;;;;;;;13.07;11.17;;;;;;;6.97;68.43;93570.00;520688;28;828;-71
2024/03/10 01:03:12;;;;;;;14.30;11.27;;;;;;;6.95;68.62;93565.06;520612;28;903;-71
2024/03/10 01:03:28;;;;;;;14.75;11.48;;;;;;;6.95;68.60;93573.28;520750;28;849;-70
2024/03/10 01:03:43;;;;;;;15.25;12.60;;;;;;;6.93;68.80;93564.81;519906;28;1727;-70
2024/03/10 01:03:59;;;;;;;16.57;13.53;;;;;;;6.93;68.77;93561.34;519051;28;852;-71
2024/03/10 01:04:14;;;;;;;17.55;13.90;;;;;;;6.92;68.74;93560.59;518807;28;909;-71
2024/03/10 01:04:30;;;;;;;17.80;14.13;;;;;;;6.93;68.76;93564.81;520780;28;836;-71
2024/03/10 01:04:45;;;;;;;17.58;13.88;;;;;;;6.91;68.60;93561.84;519779;28;846;-70
2024/03/10 01:05:00;;;;;;;17.33;13.70;;;;;;;6.92;68.87;93562.59;520449;28;751;-70
2024/03/10 01:05:18;;;;;;;16.10;12.90;;;;;;;6.93;68.72;93564.09;520673;28;850;-70
2024/03/10 01:05:33;;;;;;;15.73;12.10;;;;;;;6.94;68.75;93558.06;520686;28;915;-70
2024/03/10 01:05:51;;;;;;;16.00;12.50;;;;;;;6.93;68.79;93562.06;519881;28;858;-70
2024/03/10 01:06:06;;;;;;;16.85;13.50;;;;;;;6.96;68.75;93563.03;518624;28;952;-70
2024/03/10 01:06:23;;;;;;;17.30;13.45;;;;;;;6.97;68.95;93559.03;518761;28;1103;-70
2024/03/10 01:06:39;;;;;;;18.90;13.70;;;;;;;6.99;68.96;93565.47;518625;28;791;-71
2024/03/10 01:06:54;;;;;;;19.83;14.52;;;;;;;7.01;68.93;93560.22;519546;28;948;-70
2024/03/10 01:07:09;;;;;;;18.40;13.93;;;;;;;7.03;68.86;93556.94;520689;28;840;-70
2024/03/10 01:07:25;;;;;;;17.20;13.70;;;;;;;7.04;68.95;93550.91;519932;28;1754;-71
2024/03/10 01:07:40;;;;;;;16.83;13.37;;;;;;;7.05;68.56;93555.16;518651;28;770;-70
2024/03/10 01:07:56;;;;;;;17.80;12.80;;;;;;;7.06;68.43;93545.63;518986;28;747;-71
2024/03/10 01:08:12;;;;;;;16.37;12.13;;;;;;;7.09;68.22;93552.84;527088;28;848;-70
2024/03/10 01:08:28;;;;;;;15.07;11.93;;;;;;;7.04;68.21;93542.66;527168;28;828;-70
2024/03/10 01:08:44;;;;;;;14.45;12.32;;;;;;;7.03;68.28;93549.44;527143;28;781;-71
2024/03/10 01:09:00;;;;;;;14.63;12.32;;;;;;;7.01;68.08;93543.00;527468;27;754;-71
2024/03/10 01:09:18;;;;;;;16.42;12.63;;;;;;;7.03;68.20;93543.94;528916;27;1097;-71
2024/03/10 01:09:34;;;;;;;16.85;12.80;;;;;;;7.05;68.31;93543.41;528125;27;856;-71
2024/03/10 01:09:49;;;;;;;15.45;12.10;;;;;;;7.05;68.41;93543.41;527330;27;833;-70
2024/03/10 01:10:06;;;;;;;14.40;11.40;;;;;;;7.05;68.37;93543.41;523268;27;1659;-70
2024/03/10 01:10:23;;;;;;;15.63;11.50;;;;;;;7.02;68.42;93539.72;519590;28;895;-70
2024/03/10 01:10:38;;;;;;;16.40;11.57;;;;;;;7.04;68.62;93544.69;519422;28;922;-70
2024/03/10 01:10:54;;;;;;;14.67;11.00;;;;;;;7.02;68.70;93541.75;518291;28;790;-70
2024/03/10 01:11:11;;;;;;;13.88;11.15;;;;;;;6.95;69.34;93537.59;518548;28;833;-71
2024/03/10 01:11:26;;;;;;;15.38;12.05;;;;;;;6.91;69.32;93541.91;518691;28;869;-70
2024/03/10 01:11:48;;;;;;;14.20;11.20;;;;;;;6.91;69.57;93545.38;518687;28;821;-70
2024/03/10 01:12:04;;;;;;;12.85;10.35;;;;;;;6.88;69.25;93549.19;520373;28;881;-71
2024/03/10 01:12:19;;;;;;;13.85;10.70;;;;;;;6.84;69.58;93540.50;519542;28;982;-71
2024/03/10 01:12:34;;;;;;;12.47;10.60;;;;;;;6.80;69.63;93537.31;520646;28;829;-70
2024/03/10 01:12:50;;;;;;;11.90;10.35;;;;;;;6.80;69.50;93534.56;520631;28;901;-71
2024/03/10 01:13:07;;;;;;;12.70;10.60;;;;;;;6.78;69.81;93534.34;520649;28;813;-71
2024/03/10 01:13:23;;;;;;;13.15;10.27;;;;;;;6.77;69.65;93532.88;520707;28;884;-71
2024/03/10 01:13:39;;;;;;;13.90;10.15;;;;;;;6.79;69.57;93535.84;520321;28;1601;-71
2024/03/10 01:13:54;;;;;;;14.65;10.60;;;;;;;6.78;69.61;93537.84;519511;28;913;-70
2024/03/10 01:14:13;;;;;;;13.73;10.50;;;;;;;6.79;69.58;93538.59;518644;28;814;-71
2024/03/10 01:14:28;;;;;;;13.40;10.40;;;;;;;6.80;69.54;93534.56;518622;28;809;-70
2024/03/10 01:14:43;;;;;;;12.13;10.10;;;;;;;6.79;69.69;93538.59;519160;28;868;-70
2024/03/10 01:14:59;;;;;;;12.63;10.43;;;;;;;6.77;69.86;93533.63;520582;28;833;-70
2024/03/10 01:15:14;;;;;;;13.57;10.80;;;;;;;6.78;69.93;93528.84;520785;28;770;-72
2024/03/10 01:15:31;;;;;;;13.40;10.87;;;;;;;6.72;70.12;93541.94;520151;28;1082;-72
2024/03/10 01:15:47;;;;;;;13.32;11.15;;;;;;;6.60;70.62;93538.63;518459;28;1316;-75
2024/03/10 01:16:03;;;;;;;12.70;10.65;;;;;;;6.60;70.82;93532.38;519849;28;1363;-75
2024/03/10 01:16:18;;;;;;;12.45;10.30;;;;;;;6.59;70.87;93537.13;520635;28;904;-75
2024/03/10 01:16:34;;;;;;;12.53;10.60;;;;;;;6.58;70.85;93538.38;519344;28;790;-74
2024/03/10 01:16:49;;;;;;;13.05;10.90;;;;;;;6.56;71.07;93538.16;518870;28;877;-74
2024/03/10 01:17:05;;;;;;;13.60;11.17;;;;;;;6.51;71.17;93533.50;520807;27;758;-74